Time;durP1;ratioP1;P1;durP2;ratioP2;P2;SDS_P1;SDS_P2;PMS_P1;PMS_P2;Temp;Humidity;BMP_temperature;BMP_pressure;BME280_temperature;BME280_humidity;BME280_pressure;Samples;Min_cycle;Max_cycle;Signal;HPM_P1;HPM_P2
2021/01/14 00:00:24;;;;;;;5.70;4.50;;;3.90;56.60;;;;;;4852483;29;20069;-69
2021/01/14 00:02:51;;;;;;;6.35;5.00;;;3.90;56.10;;;;;;4853026;29;20057;-70
2021/01/14 00:05:18;;;;;;;6.22;4.80;;;3.90;55.50;;;;;;4856347;29;22159;-72
2021/01/14 00:07:46;;;;;;;7.65;5.05;;;3.80;56.50;;;;;;4856431;29;20068;-70
2021/01/14 00:10:13;;;;;;;4.82;4.03;;;3.80;56.20;;;;;;4856565;29;20428;-71
2021/01/14 00:12:41;;;;;;;5.55;4.00;;;3.80;51.60;;;;;;4854642;29;20061;-71
2021/01/14 00:15:10;;;;;;;5.13;3.53;;;3.80;50.80;;;;;;4856737;29;20140;-71
2021/01/14 00:17:37;;;;;;;4.35;3.60;;;3.80;49.60;;;;;;4857055;29;20068;-71
2021/01/14 00:20:06;;;;;;;4.75;3.83;;;3.80;50.10;;;;;;4854140;29;20140;-69
2021/01/14 00:22:33;;;;;;;5.25;3.70;;;3.70;49.90;;;;;;4854072;29;20057;-70
2021/01/14 00:25:00;;;;;;;5.85;3.80;;;3.80;47.30;;;;;;4855430;29;20469;-71
2021/01/14 00:27:27;;;;;;;5.25;4.05;;;3.80;47.00;;;;;;4856090;29;20053;-70
2021/01/14 00:29:54;;;;;;;5.55;3.47;;;3.70;47.10;;;;;;4853597;29;20567;-70
2021/01/14 00:32:21;;;;;;;5.45;3.80;;;3.70;46.50;;;;;;4855284;29;20068;-71
2021/01/14 00:34:48;;;;;;;6.53;4.43;;;3.70;46.50;;;;;;4854578;29;20045;-70
2021/01/14 00:40:00;;;;;;;;;;;3.70;48.60;;;;;;4852503;29;20385;-70
2021/01/14 00:42:27;;;;;;;7.30;4.05;;;3.70;49.20;;;;;;4853539;29;19928;-70
2021/01/14 00:44:54;;;;;;;7.72;4.63;;;3.70;49.80;;;;;;4855720;29;20083;-69
2021/01/14 00:47:20;;;;;;;6.70;4.55;;;3.60;51.30;;;;;;4855575;29;20064;-69
2021/01/14 00:49:47;;;;;;;7.30;4.90;;;3.70;51.20;;;;;;4853115;29;20086;-69
2021/01/14 00:52:14;;;;;;;5.70;4.32;;;3.60;51.90;;;;;;4853663;29;20061;-71
2021/01/14 00:54:41;;;;;;;6.72;4.20;;;3.60;52.00;;;;;;4854740;29;20919;-70
2021/01/14 00:57:10;;;;;;;4.88;3.72;;;3.60;51.10;;;;;;4854797;29;20079;-70
2021/01/14 00:59:37;;;;;;;6.35;4.72;;;3.70;50.60;;;;;;4853272;29;20057;-69
2021/01/14 01:02:04;;;;;;;7.32;4.65;;;3.70;51.70;;;;;;4855576;29;20162;-70
2021/01/14 01:04:31;;;;;;;7.63;4.68;;;3.60;51.40;;;;;;4852648;29;20062;-71
2021/01/14 01:06:58;;;;;;;9.45;4.93;;;3.60;51.90;;;;;;4853216;29;20057;-72
2021/01/14 01:09:25;;;;;;;6.55;4.70;;;3.60;53.10;;;;;;4853170;29;20050;-69
2021/01/14 01:11:52;;;;;;;7.72;5.03;;;3.60;53.10;;;;;;4853896;29;20064;-72
2021/01/14 01:14:20;;;;;;;6.47;4.40;;;3.50;53.00;;;;;;4854013;29;20063;-73
2021/01/14 01:16:47;;;;;;;5.75;4.30;;;3.50;51.60;;;;;;4854925;29;20065;-69
2021/01/14 01:19:14;;;;;;;8.05;5.05;;;3.50;51.50;;;;;;4851657;29;20057;-71
2021/01/14 01:21:44;;;;;;;6.32;4.65;;;3.50;51.20;;;;;;4855406;29;20141;-70
2021/01/14 01:24:11;;;;;;;5.47;3.90;;;3.50;50.30;;;;;;4852686;29;20083;-71
2021/01/14 01:26:38;;;;;;;9.95;4.20;;;3.50;50.00;;;;;;4855297;29;20058;-69
2021/01/14 01:29:05;;;;;;;6.28;4.55;;;3.50;49.20;;;;;;4852051;29;20057;-71
2021/01/14 01:31:38;;;;;;;8.35;4.95;;;3.50;50.40;;;;;;4857575;29;20049;-71
2021/01/14 01:34:05;;;;;;;6.75;4.97;;;3.50;50.40;;;;;;4852277;29;20057;-72
2021/01/14 01:36:32;;;;;;;6.57;4.82;;;3.50;51.20;;;;;;4855602;29;20067;-70
2021/01/14 01:38:59;;;;;;;10.15;5.60;;;3.50;52.10;;;;;;4852688;29;20053;-70
2021/01/14 01:41:26;;;;;;;8.68;5.60;;;3.50;52.30;;;;;;4854219;29;20067;-71
2021/01/14 01:43:52;;;;;;;6.45;4.43;;;3.50;51.20;;;;;;4856446;29;20069;-71
2021/01/14 01:46:24;;;;;;;7.18;4.85;;;3.50;49.30;;;;;;4857285;29;20061;-71
2021/01/14 01:48:54;;;;;;;4.88;3.78;;;3.50;49.50;;;;;;4859207;29;20469;-70
2021/01/14 01:51:22;;;;;;;5.68;3.97;;;3.50;48.30;;;;;;4857679;29;20049;-70
2021/01/14 01:53:49;;;;;;;6.80;4.60;;;3.50;46.50;;;;;;4857794;29;20076;-71
2021/01/14 01:56:17;;;;;;;8.93;4.03;;;3.50;46.50;;;;;;4857552;29;20050;-69
2021/01/14 01:58:45;;;;;;;5.85;3.67;;;3.60;46.10;;;;;;4861017;29;20058;-71
2021/01/14 02:01:12;;;;;;;5.97;4.53;;;3.50;45.10;;;;;;4857209;29;20049;-69
2021/01/14 02:03:40;;;;;;;7.75;4.00;;;3.50;46.40;;;;;;4858448;29;20062;-71
2021/01/14 02:06:10;;;;;;;6.72;4.10;;;3.50;45.10;;;;;;4858495;29;20050;-70
2021/01/14 02:08:45;;;;;;;6.50;4.30;;;3.50;45.90;;;;;;4861170;29;20572;-70
2021/01/14 02:11:16;;;;;;;5.53;3.47;;;3.50;46.10;;;;;;4854676;29;20059;-71
2021/01/14 02:13:52;;;;;;;6.82;4.45;;;3.40;47.80;;;;;;4859566;29;20057;-71
2021/01/14 02:16:21;;;;;;;7.65;4.22;;;3.50;49.10;;;;;;4857832;29;20078;-71
2021/01/14 02:18:53;;;;;;;7.60;4.25;;;3.50;50.60;;;;;;4859788;29;20041;-72
2021/01/14 02:21:23;;;;;;;7.35;5.43;;;3.50;51.80;;;;;;4857484;29;20050;-71
2021/01/14 02:23:58;;;;;;;7.72;4.72;;;3.50;52.20;;;;;;4857323;29;20092;-70
2021/01/14 02:26:27;;;;;;;8.32;5.47;;;3.50;51.70;;;;;;4857258;29;20060;-70
2021/01/14 02:28:55;;;;;;;6.35;4.85;;;3.40;52.30;;;;;;4855133;29;20064;-71
2021/01/14 02:31:24;;;;;;;7.22;4.47;;;3.40;52.90;;;;;;4855939;29;20059;-71
2021/01/14 02:33:53;;;;;;;9.40;4.68;;;3.40;51.50;;;;;;4857058;29;20508;-71
2021/01/14 02:36:20;;;;;;;6.45;4.68;;;3.40;52.10;;;;;;4857647;29;20144;-71
2021/01/14 02:38:47;;;;;;;10.50;5.32;;;3.40;51.40;;;;;;4858557;29;20056;-71
2021/01/14 02:41:14;;;;;;;6.72;4.50;;;3.40;52.40;;;;;;4855254;29;20055;-71
2021/01/14 02:43:42;;;;;;;7.43;5.22;;;3.30;52.10;;;;;;4858466;29;20054;-71
2021/01/14 02:46:10;;;;;;;5.22;3.78;;;3.30;52.10;;;;;;4856648;29;20053;-72
2021/01/14 02:48:41;;;;;;;6.03;4.00;;;3.20;50.40;;;;;;4857312;29;20527;-70
2021/01/14 02:51:12;;;;;;;5.65;3.58;;;3.10;50.70;;;;;;4853449;29;20062;-71
2021/01/14 02:53:41;;;;;;;5.85;3.85;;;3.10;50.80;;;;;;4857388;29;20072;-71
2021/01/14 02:56:11;;;;;;;4.75;3.22;;;3.00;50.60;;;;;;4856721;29;20073;-70
2021/01/14 02:58:39;;;;;;;5.43;3.42;;;3.00;51.40;;;;;;4856550;29;20117;-69
2021/01/14 03:01:07;;;;;;;8.13;2.97;;;3.00;50.30;;;;;;4854004;29;20068;-70
2021/01/14 03:03:34;;;;;;;4.97;3.03;;;2.90;50.30;;;;;;4859379;29;20060;-69
2021/01/14 03:06:00;;;;;;;3.33;2.75;;;2.90;50.20;;;;;;4857430;29;20053;-70
2021/01/14 03:08:27;;;;;;;4.45;2.90;;;2.90;50.30;;;;;;4857259;29;20061;-69
2021/01/14 03:10:54;;;;;;;4.47;2.97;;;2.80;49.90;;;;;;4854896;29;20057;-70
2021/01/14 03:13:21;;;;;;;4.53;2.90;;;2.80;50.20;;;;;;4855987;29;20063;-72
2021/01/14 03:15:48;;;;;;;4.13;2.42;;;2.80;50.60;;;;;;4857049;29;20061;-69
2021/01/14 03:18:15;;;;;;;4.10;2.90;;;2.70;49.60;;;;;;4858339;29;20068;-70
2021/01/14 03:20:42;;;;;;;4.30;2.75;;;2.70;50.70;;;;;;4854535;29;20509;-70
2021/01/14 03:23:10;;;;;;;3.92;2.72;;;2.70;49.50;;;;;;4856299;29;20065;-70
2021/01/14 03:25:37;;;;;;;3.55;2.30;;;2.70;51.20;;;;;;4856552;29;20049;-70
2021/01/14 03:28:04;;;;;;;3.10;2.28;;;2.60;52.10;;;;;;4855362;29;20045;-72
2021/01/14 03:30:30;;;;;;;6.50;2.88;;;2.60;52.30;;;;;;4853229;29;20057;-70
2021/01/14 03:32:57;;;;;;;5.35;3.08;;;2.60;52.30;;;;;;4855870;29;20065;-71
2021/01/14 03:35:25;;;;;;;3.88;2.33;;;2.50;53.00;;;;;;4855982;29;20060;-72
2021/01/14 03:37:52;;;;;;;5.20;2.95;;;2.60;53.90;;;;;;4857079;29;20053;-70
2021/01/14 03:40:19;;;;;;;4.60;2.97;;;2.50;53.40;;;;;;4855433;29;20058;-71
2021/01/14 03:42:45;;;;;;;6.95;2.88;;;2.40;54.00;;;;;;4855067;29;20172;-69
2021/01/14 03:45:13;;;;;;;3.72;2.47;;;2.40;55.00;;;;;;4854910;29;20053;-69
2021/01/14 03:47:40;;;;;;;3.80;2.70;;;2.40;55.40;;;;;;4857820;29;20068;-69
2021/01/14 03:50:08;;;;;;;3.50;2.30;;;2.30;55.70;;;;;;4854535;29;20054;-72
2021/01/14 03:52:36;;;;;;;4.30;2.78;;;2.30;55.60;;;;;;4855756;29;20106;-70
2021/01/14 03:55:03;;;;;;;4.22;2.67;;;2.30;56.10;;;;;;4855681;29;20057;-70
2021/01/14 03:57:34;;;;;;;4.53;2.83;;;2.20;56.40;;;;;;4855580;29;20061;-69
2021/01/14 04:00:02;;;;;;;4.30;2.85;;;2.20;57.90;;;;;;4852662;29;20046;-70
2021/01/14 04:02:31;;;;;;;4.05;2.78;;;2.20;58.40;;;;;;4855536;29;20045;-70
2021/01/14 04:04:58;;;;;;;5.60;3.10;;;2.20;59.70;;;;;;4855342;29;20064;-69
2021/01/14 04:07:25;;;;;;;6.47;3.33;;;2.20;59.60;;;;;;4855484;29;20064;-69
2021/01/14 04:09:53;;;;;;;5.78;3.60;;;2.10;59.60;;;;;;4853995;29;20427;-68
2021/01/14 04:12:27;;;;;;;4.50;3.38;;;2.20;59.70;;;;;;4855400;29;20072;-69
2021/01/14 04:14:54;;;;;;;4.17;3.20;;;2.20;59.70;;;;;;4854629;29;20075;-70
2021/01/14 04:17:21;;;;;;;6.35;3.53;;;2.10;60.40;;;;;;4856024;29;20294;-70
2021/01/14 04:19:48;;;;;;;5.07;3.30;;;2.10;60.50;;;;;;4852430;29;20136;-69
2021/01/14 04:22:14;;;;;;;5.03;3.63;;;2.10;61.40;;;;;;4854434;29;20056;-69
2021/01/14 04:24:41;;;;;;;6.53;3.83;;;2.10;61.50;;;;;;4851927;29;20061;-69
2021/01/14 04:27:09;;;;;;;7.95;3.33;;;2.00;61.70;;;;;;4854942;29;20052;-70
2021/01/14 04:29:36;;;;;;;6.65;4.05;;;2.00;62.70;;;;;;4852093;29;20049;-68
2021/01/14 04:32:03;;;;;;;5.47;3.92;;;2.00;63.20;;;;;;4853561;29;20055;-69
2021/01/14 04:34:30;;;;;;;6.82;3.95;;;1.90;63.50;;;;;;4853828;29;20061;-68
2021/01/14 04:36:58;;;;;;;7.82;3.95;;;2.00;64.20;;;;;;4855040;29;20092;-69
2021/01/14 04:39:25;;;;;;;7.28;4.15;;;1.90;65.20;;;;;;4851210;29;20062;-69
2021/01/14 04:41:56;;;;;;;6.85;3.95;;;1.90;65.60;;;;;;4853272;29;20531;-69
2021/01/14 04:44:24;;;;;;;6.32;3.67;;;1.90;65.90;;;;;;4852547;29;20069;-69
2021/01/14 04:47:02;;;;;;;6.68;3.92;;;1.80;66.50;;;;;;4853742;29;20056;-68
2021/01/14 04:49:30;;;;;;;7.93;4.35;;;1.90;67.40;;;;;;4850773;29;20527;-69
2021/01/14 04:52:01;;;;;;;6.22;4.32;;;1.90;67.50;;;;;;4853411;29;20052;-69
2021/01/14 04:54:34;;;;;;;9.43;5.13;;;1.80;67.40;;;;;;4852401;29;20156;-69
2021/01/14 04:57:04;;;;;;;7.00;4.40;;;1.80;67.50;;;;;;4854719;29;20053;-70
2021/01/14 04:59:37;;;;;;;7.05;4.60;;;1.80;67.70;;;;;;4851444;29;20480;-68
2021/01/14 05:02:08;;;;;;;7.43;4.60;;;1.80;68.70;;;;;;4853684;29;20087;-69
2021/01/14 05:04:38;;;;;;;10.27;5.43;;;1.80;68.60;;;;;;4852542;29;21386;-69
2021/01/14 05:07:08;;;;;;;10.90;5.97;;;1.80;69.20;;;;;;4855034;29;20045;-67
2021/01/14 05:09:41;;;;;;;8.15;5.68;;;1.70;68.50;;;;;;4850322;29;20045;-69
2021/01/14 05:12:09;;;;;;;6.60;4.93;;;1.70;70.10;;;;;;4854523;29;20054;-68
2021/01/14 05:14:38;;;;;;;10.23;5.60;;;1.70;70.60;;;;;;4851970;29;20065;-68
2021/01/14 05:17:05;;;;;;;10.95;5.32;;;1.70;70.10;;;;;;4853800;29;20053;-68
2021/01/14 05:19:32;;;;;;;7.43;5.25;;;1.70;71.20;;;;;;4850388;29;20063;-69
2021/01/14 05:22:00;;;;;;;9.00;5.15;;;1.70;70.80;;;;;;4854753;29;20152;-68
2021/01/14 05:24:27;;;;;;;8.73;5.30;;;1.60;71.20;;;;;;4851496;29;20049;-68
2021/01/14 05:26:54;;;;;;;9.15;5.30;;;1.50;70.80;;;;;;4855280;29;20045;-69
2021/01/14 05:29:22;;;;;;;10.38;5.80;;;1.50;71.70;;;;;;4850033;29;20057;-69
2021/01/14 05:31:51;;;;;;;10.75;5.80;;;1.50;71.20;;;;;;4856808;29;20063;-71
2021/01/14 05:34:18;;;;;;;10.07;6.00;;;1.50;71.40;;;;;;4851864;29;20049;-68
2021/01/14 05:36:52;;;;;;;9.23;5.90;;;1.50;71.70;;;;;;4849380;29;20065;-69
2021/01/14 05:39:20;;;;;;;10.68;6.60;;;1.50;71.80;;;;;;4852756;29;20488;-71
2021/01/14 05:41:48;;;;;;;11.48;6.32;;;1.50;71.90;;;;;;4849425;29;20071;-69
2021/01/14 05:44:15;;;;;;;7.75;5.57;;;1.50;72.20;;;;;;4850554;29;20057;-70
2021/01/14 05:46:45;;;;;;;10.10;5.85;;;1.40;73.10;;;;;;4851444;29;20057;-70
2021/01/14 05:49:13;;;;;;;9.27;5.85;;;1.50;73.80;;;;;;4851940;29;20128;-70
2021/01/14 05:51:40;;;;;;;8.77;5.57;;;1.50;73.80;;;;;;4850593;29;20144;-70
2021/01/14 05:54:09;;;;;;;12.57;6.65;;;1.40;73.60;;;;;;4848593;29;20504;-70
2021/01/14 05:56:38;;;;;;;11.43;7.03;;;1.40;73.60;;;;;;4852299;29;20057;-70
2021/01/14 05:59:07;;;;;;;10.73;6.72;;;1.50;74.20;;;;;;4851448;29;20527;-70
2021/01/14 06:01:35;;;;;;;9.68;6.28;;;1.40;73.90;;;;;;4850241;29;20417;-72
2021/01/14 06:04:16;;;;;;;13.38;7.22;;;1.40;73.80;;;;;;4847221;29;20072;-68
2021/01/14 06:06:48;;;;;;;12.40;7.78;;;1.40;74.10;;;;;;4851915;29;20508;-69
2021/01/14 06:09:16;;;;;;;13.95;8.25;;;1.40;74.10;;;;;;4852959;29;20053;-70
2021/01/14 06:11:43;;;;;;;14.18;8.00;;;1.40;74.40;;;;;;4853472;29;20156;-71
2021/01/14 06:14:26;;;;;;;12.40;7.88;;;1.40;74.50;;;;;;4848245;29;20065;-69
2021/01/14 06:16:53;;;;;;;14.75;8.18;;;1.40;74.70;;;;;;4853333;29;20060;-70
2021/01/14 06:19:25;;;;;;;14.40;8.88;;;1.40;75.00;;;;;;4853332;29;20054;-70
2021/01/14 06:21:55;;;;;;;12.43;8.18;;;1.40;74.60;;;;;;4851640;29;20072;-70
2021/01/14 06:24:25;;;;;;;12.80;8.27;;;1.40;73.90;;;;;;4849373;29;20057;-70
2021/01/14 06:26:53;;;;;;;13.90;7.90;;;1.40;73.70;;;;;;4852571;29;20084;-70
2021/01/14 06:29:22;;;;;;;15.10;9.15;;;1.40;74.30;;;;;;4851863;29;20153;-70
2021/01/14 06:31:49;;;;;;;15.27;8.15;;;1.40;74.10;;;;;;4855654;29;20168;-70
2021/01/14 06:34:19;;;;;;;14.43;8.73;;;1.50;74.70;;;;;;4851585;29;20056;-70
2021/01/14 06:36:49;;;;;;;12.80;9.27;;;1.50;74.40;;;;;;4853908;29;20072;-69
2021/01/14 06:39:19;;;;;;;15.27;9.10;;;1.50;73.10;;;;;;4852403;29;20500;-70
2021/01/14 06:41:51;;;;;;;;;;;1.50;74.30;;;;;;4853491;29;20148;-70
2021/01/14 06:44:22;;;;;;;14.18;8.85;;;1.50;74.60;;;;;;4851810;29;19939;-69
2021/01/14 06:46:54;;;;;;;18.05;9.43;;;1.50;73.70;;;;;;4852839;29;20512;-69
2021/01/14 06:49:31;;;;;;;14.55;8.85;;;1.50;71.70;;;;;;4855955;29;20053;-69
2021/01/14 06:52:08;;;;;;;15.38;8.93;;;1.50;71.40;;;;;;4852508;29;20058;-70
2021/01/14 06:54:39;;;;;;;15.13;9.38;;;1.40;72.30;;;;;;4849542;29;20061;-69
2021/01/14 06:57:15;;;;;;;17.30;9.90;;;1.50;73.90;;;;;;4854103;29;20057;-70
2021/01/14 06:59:43;;;;;;;18.60;9.57;;;1.60;73.90;;;;;;4853832;29;20114;-69
2021/01/14 07:02:51;;;;;;;16.65;9.85;;;1.50;71.20;;;;;;4853287;29;20049;-69
2021/01/14 07:05:28;;;;;;;14.90;9.80;;;1.60;71.30;;;;;;4848684;29;20053;-70
2021/01/14 07:08:24;;;;;;;15.55;9.52;;;1.60;71.30;;;;;;4853101;29;20049;-69
2021/01/14 07:11:01;;;;;;;15.57;9.80;;;1.50;71.90;;;;;;4853429;29;20613;-70
2021/01/14 07:13:31;;;;;;;17.73;10.25;;;1.60;71.90;;;;;;4853871;29;20061;-69
2021/01/14 07:15:59;;;;;;;15.00;9.25;;;1.50;71.90;;;;;;4851151;29;20504;-70
2021/01/14 07:18:29;;;;;;;16.55;10.70;;;1.50;72.50;;;;;;4853080;29;20072;-70
2021/01/14 07:21:02;;;;;;;13.32;9.50;;;1.50;71.40;;;;;;4852448;29;20058;-70
2021/01/14 07:23:37;;;;;;;15.82;9.75;;;1.50;72.00;;;;;;4852660;29;20057;-68
2021/01/14 07:26:04;;;;;;;14.82;9.65;;;1.50;71.20;;;;;;4853041;29;20512;-70
2021/01/14 07:28:35;;;;;;;16.05;9.70;;;1.50;71.20;;;;;;4853212;29;20500;-70
2021/01/14 07:31:20;;;;;;;15.68;9.68;;;1.50;71.20;;;;;;4852284;29;20057;-71
2021/01/14 07:33:47;;;;;;;15.27;10.15;;;1.50;72.90;;;;;;4850450;29;20061;-73
2021/01/14 07:36:24;;;;;;;20.40;11.60;;;1.50;72.50;;;;;;4852348;29;20066;-69
2021/01/14 07:38:54;;;;;;;15.20;10.50;;;1.50;72.70;;;;;;4853740;29;20133;-71
2021/01/14 07:41:21;;;;;;;16.23;10.15;;;1.50;71.70;;;;;;4853049;29;20060;-71
2021/01/14 07:43:49;;;;;;;16.27;10.70;;;1.50;71.50;;;;;;4852552;29;20087;-71
2021/01/14 07:46:20;;;;;;;18.23;10.60;;;1.60;71.30;;;;;;4852853;29;20398;-69
2021/01/14 07:48:47;;;;;;;17.65;10.75;;;1.60;71.30;;;;;;4854175;29;20458;-70
2021/01/14 07:51:15;;;;;;;17.80;10.88;;;1.60;70.60;;;;;;4851637;29;20489;-70
2021/01/14 07:53:43;;;;;;;17.10;10.40;;;1.60;70.50;;;;;;4850640;29;20527;-70
2021/01/14 07:56:23;;;;;;;18.48;11.85;;;1.60;69.40;;;;;;4851403;29;20050;-72
2021/01/14 07:58:54;;;;;;;15.27;10.18;;;1.60;70.20;;;;;;4853239;29;20053;-69
2021/01/14 08:01:21;;;;;;;26.10;13.13;;;1.60;69.70;;;;;;4852419;29;20416;-72
2021/01/14 08:03:49;;;;;;;19.42;11.88;;;1.60;69.70;;;;;;4849351;29;20497;-71
2021/01/14 08:06:27;;;;;;;17.33;11.30;;;1.60;69.10;;;;;;4851484;29;20056;-71
2021/01/14 08:09:01;;;;;;;18.77;11.18;;;1.60;70.00;;;;;;4853049;29;20061;-69
2021/01/14 08:11:32;;;;;;;19.08;11.98;;;1.60;69.00;;;;;;4850161;29;20049;-69
2021/01/14 08:14:10;;;;;;;23.70;11.68;;;1.60;70.90;;;;;;4847664;29;20069;-70
2021/01/14 08:16:39;;;;;;;22.75;13.60;;;1.50;69.90;;;;;;4851204;29;20061;-70
2021/01/14 08:19:20;;;;;;;16.55;11.30;;;1.50;70.60;;;;;;4851383;29;20401;-71
2021/01/14 08:21:49;;;;;;;18.45;11.77;;;1.50;70.20;;;;;;4849898;29;20536;-69
2021/01/14 08:24:37;;;;;;;18.20;12.70;;;1.50;69.80;;;;;;4848007;29;20231;-69
2021/01/14 08:27:06;;;;;;;18.85;12.25;;;1.50;69.20;;;;;;4851118;29;20064;-70
2021/01/14 08:29:45;;;;;;;22.80;12.30;;;1.50;69.10;;;;;;4852162;29;20490;-69
2021/01/14 08:32:43;;;;;;;19.85;12.27;;;1.50;68.50;;;;;;4849103;29;20053;-68
2021/01/14 08:35:27;;;;;;;22.70;13.88;;;1.50;68.80;;;;;;4847812;29;20104;-69
2021/01/14 08:37:55;;;;;;;22.02;12.55;;;1.50;68.70;;;;;;4850885;29;20144;-70
2021/01/14 08:40:27;;;;;;;19.25;11.77;;;1.50;68.30;;;;;;4852760;29;20125;-70
2021/01/14 08:43:06;;;;;;;18.80;12.27;;;1.50;68.20;;;;;;4851384;29;20071;-69
2021/01/14 08:45:35;;;;;;;20.35;12.55;;;1.50;67.60;;;;;;4846745;29;20065;-69
2021/01/14 08:48:04;;;;;;;19.20;11.80;;;1.50;68.00;;;;;;4850876;29;20230;-68
2021/01/14 08:50:49;;;;;;;18.38;11.45;;;1.50;68.20;;;;;;4850999;29;20063;-69
2021/01/14 08:53:27;;;;;;;20.27;12.27;;;1.40;67.10;;;;;;4849972;29;20096;-70
2021/01/14 08:55:56;;;;;;;26.98;12.65;;;1.40;68.10;;;;;;4846100;29;20060;-69
2021/01/14 08:58:34;;;;;;;22.02;13.25;;;1.50;69.00;;;;;;4850053;29;20053;-69
2021/01/14 09:01:01;;;;;;;18.38;11.45;;;1.50;68.20;;;;;;4850299;29;20076;-68
2021/01/14 09:03:28;;;;;;;18.17;11.88;;;1.60;69.20;;;;;;4851792;29;20541;-70
2021/01/14 09:05:55;;;;;;;18.63;12.02;;;1.50;67.30;;;;;;4847356;29;20411;-70
2021/01/14 09:08:23;;;;;;;19.52;11.65;;;1.50;68.30;;;;;;4851719;29;20132;-69
2021/01/14 09:10:52;;;;;;;18.45;12.32;;;1.50;68.80;;;;;;4850151;29;20050;-70
2021/01/14 09:13:20;;;;;;;17.80;10.80;;;1.50;68.00;;;;;;4850419;29;20122;-71
2021/01/14 09:15:49;;;;;;;27.10;11.95;;;1.50;67.20;;;;;;4847998;29;20061;-69
2021/01/14 09:18:18;;;;;;;21.30;12.88;;;1.60;67.30;;;;;;4853191;29;20096;-72
2021/01/14 09:20:52;;;;;;;39.85;19.35;;;1.50;67.20;;;;;;4850012;29;20068;-70
2021/01/14 09:23:25;;;;;;;32.65;18.25;;;1.60;67.30;;;;;;4850558;29;20061;-70
2021/01/14 09:25:53;;;;;;;28.75;16.83;;;1.60;67.20;;;;;;4848497;29;20045;-71
2021/01/14 09:28:25;;;;;;;23.88;13.60;;;1.70;65.90;;;;;;4850895;29;20093;-70
2021/01/14 09:30:58;;;;;;;19.48;12.25;;;1.70;66.80;;;;;;4851619;29;20067;-70
2021/01/14 09:33:26;;;;;;;18.67;11.63;;;1.70;66.10;;;;;;4852347;29;20058;-69
2021/01/14 09:36:15;;;;;;;19.35;11.23;;;1.70;65.30;;;;;;4847882;29;20063;-70
2021/01/14 09:38:48;;;;;;;18.63;11.98;;;1.70;64.80;;;;;;4853114;29;20073;-70
2021/01/14 09:41:23;;;;;;;17.90;10.98;;;1.70;64.50;;;;;;4850659;29;20076;-70
2021/01/14 09:43:53;;;;;;;19.85;11.30;;;1.70;62.80;;;;;;4849997;29;20137;-70
2021/01/14 09:46:23;;;;;;;19.92;12.18;;;1.80;64.10;;;;;;4852336;29;20058;-69
2021/01/14 09:48:55;;;;;;;16.02;11.02;;;1.80;63.30;;;;;;4851715;29;20512;-70
2021/01/14 09:51:22;;;;;;;20.83;12.10;;;1.80;62.30;;;;;;4851161;29;20052;-72
2021/01/14 09:53:50;;;;;;;17.10;11.57;;;1.80;63.50;;;;;;4851163;29;20534;-71
2021/01/14 09:56:29;;;;;;;17.02;10.82;;;1.80;63.00;;;;;;4850841;29;20170;-70
2021/01/14 09:58:58;;;;;;;18.42;11.25;;;1.80;60.30;;;;;;4852845;29;20063;-70
2021/01/14 10:01:30;;;;;;;18.48;11.60;;;1.90;61.90;;;;;;4850542;29;20057;-70
2021/01/14 10:04:05;;;;;;;16.42;10.55;;;1.90;62.70;;;;;;4850877;29;20835;-70
2021/01/14 10:06:38;;;;;;;15.55;9.77;;;1.80;61.70;;;;;;4854118;29;20068;-69
2021/01/14 10:09:06;;;;;;;15.63;10.63;;;1.80;61.40;;;;;;4857392;29;20049;-69
2021/01/14 10:11:35;;;;;;;17.77;11.00;;;1.90;62.50;;;;;;4855216;29;20069;-70
2021/01/14 10:14:02;;;;;;;15.05;9.98;;;1.90;60.40;;;;;;4854902;29;20062;-71
2021/01/14 10:16:30;;;;;;;16.90;10.43;;;1.90;59.20;;;;;;4853818;29;20168;-69
2021/01/14 10:19:11;;;;;;;17.88;9.77;;;1.90;59.50;;;;;;4857182;29;20569;-72
2021/01/14 10:21:39;;;;;;;14.15;10.07;;;1.80;60.30;;;;;;4854789;29;20523;-69
2021/01/14 10:24:18;;;;;;;19.63;10.20;;;1.70;59.40;;;;;;4853278;29;20136;-71
2021/01/14 10:26:46;;;;;;;24.38;11.25;;;1.70;59.80;;;;;;4854928;29;20056;-71
2021/01/14 10:29:28;;;;;;;18.33;11.07;;;1.80;60.80;;;;;;4857217;29;20053;-69
2021/01/14 10:32:02;;;;;;;20.95;10.90;;;1.90;59.50;;;;;;4851264;29;22796;-69
2021/01/14 10:34:47;;;;;;;22.07;11.40;;;2.00;59.60;;;;;;4850162;29;20061;-69
2021/01/14 10:37:18;;;;;;;21.45;10.95;;;1.90;57.00;;;;;;4855574;29;20761;-70
2021/01/14 10:39:45;;;;;;;20.25;11.18;;;2.10;58.50;;;;;;4853960;29;20100;-71
2021/01/14 10:42:32;;;;;;;19.52;11.13;;;2.10;56.50;;;;;;4856153;29;20061;-70
2021/01/14 10:45:01;;;;;;;19.63;11.95;;;2.00;57.40;;;;;;4854285;29;20057;-69
2021/01/14 10:47:29;;;;;;;19.73;10.63;;;1.90;57.50;;;;;;4858799;29;20053;-69
2021/01/14 10:49:56;;;;;;;23.17;12.57;;;1.90;57.40;;;;;;4860344;29;20429;-70
2021/01/14 10:52:27;;;;;;;20.08;11.40;;;2.00;57.20;;;;;;4855905;29;20073;-70
2021/01/14 10:55:01;;;;;;;19.45;10.75;;;2.20;58.00;;;;;;4855735;29;20056;-70
2021/01/14 10:57:51;;;;;;;18.73;10.32;;;2.00;55.60;;;;;;4857008;29;20061;-70
2021/01/14 11:00:19;;;;;;;17.77;9.82;;;2.00;55.80;;;;;;4857366;29;20064;-71
2021/01/14 11:02:47;;;;;;;20.92;10.80;;;2.00;55.30;;;;;;4857078;29;20159;-70
2021/01/14 11:05:14;;;;;;;20.10;10.18;;;2.00;54.30;;;;;;4853835;29;20152;-71
2021/01/14 11:07:42;;;;;;;17.23;9.43;;;2.00;54.20;;;;;;4858769;29;20140;-70
2021/01/14 11:10:11;;;;;;;22.90;11.85;;;2.10;53.50;;;;;;4858166;29;20496;-69
2021/01/14 11:13:02;;;;;;;20.27;10.25;;;2.10;51.90;;;;;;4858395;29;20061;-70
2021/01/14 11:15:29;;;;;;;21.83;10.38;;;2.10;51.90;;;;;;4854757;29;20057;-70
2021/01/14 11:18:00;;;;;;;20.77;10.23;;;2.10;49.50;;;;;;4857527;29;20512;-71
2021/01/14 11:20:27;;;;;;;17.98;8.95;;;2.10;47.20;;;;;;4858345;29;20414;-70
2021/01/14 11:22:54;;;;;;;14.25;8.70;;;2.10;48.40;;;;;;4857784;29;20061;-70
2021/01/14 11:25:21;;;;;;;11.85;8.23;;;2.10;47.90;;;;;;4854286;29;20073;-72
2021/01/14 11:27:48;;;;;;;15.50;8.75;;;1.90;46.20;;;;;;4857939;29;20055;-70
2021/01/14 11:30:16;;;;;;;16.67;8.43;;;2.10;49.00;;;;;;4857118;29;20053;-70
2021/01/14 11:32:45;;;;;;;12.68;7.65;;;2.20;48.60;;;;;;4857688;29;20065;-71
2021/01/14 11:35:13;;;;;;;13.10;7.03;;;2.10;41.50;;;;;;4852506;29;20067;-70
2021/01/14 11:37:40;;;;;;;10.25;7.13;;;2.10;41.40;;;;;;4855819;29;20061;-71
2021/01/14 11:40:07;;;;;;;10.68;5.45;;;2.30;40.10;;;;;;4857218;29;20053;-70
2021/01/14 11:42:34;;;;;;;14.07;6.53;;;2.20;32.20;;;;;;4856917;29;20053;-70
2021/01/14 11:45:01;;;;;;;10.80;6.40;;;2.20;32.60;;;;;;4855735;29;20061;-70
2021/01/14 11:47:28;;;;;;;11.52;6.40;;;2.30;32.90;;;;;;4859200;29;20053;-69
2021/01/14 11:49:55;;;;;;;10.82;6.63;;;2.30;32.00;;;;;;4857655;29;20534;-68
2021/01/14 11:52:23;;;;;;;10.40;6.13;;;2.20;33.70;;;;;;4855567;29;20053;-72
2021/01/14 11:54:51;;;;;;;12.05;5.90;;;2.20;32.70;;;;;;4853985;29;20061;-68
2021/01/14 11:57:18;;;;;;;9.43;5.80;;;2.30;31.90;;;;;;4856634;29;20053;-68
2021/01/14 11:59:45;;;;;;;9.20;6.80;;;2.20;30.60;;;;;;4854114;29;20059;-71
2021/01/14 12:02:12;;;;;;;15.45;6.20;;;2.40;30.30;;;;;;4854139;29;20431;-71
2021/01/14 12:04:38;;;;;;;10.07;5.88;;;2.40;29.60;;;;;;4854394;29;21346;-70
2021/01/14 12:07:05;;;;;;;8.93;5.63;;;2.50;29.40;;;;;;4855600;29;20563;-70
2021/01/14 12:09:33;;;;;;;10.93;5.40;;;2.30;30.30;;;;;;4856338;29;20053;-70
2021/01/14 12:12:00;;;;;;;9.60;5.60;;;2.30;31.40;;;;;;4854809;29;20113;-70
2021/01/14 12:14:27;;;;;;;12.32;6.50;;;2.20;31.90;;;;;;4854228;29;20058;-70
2021/01/14 12:16:54;;;;;;;11.52;5.18;;;2.30;31.70;;;;;;4856843;29;20064;-70
2021/01/14 12:19:20;;;;;;;13.20;6.70;;;2.50;28.80;;;;;;4858236;29;20053;-70
2021/01/14 12:22:00;;;;;;;15.63;5.70;;;2.30;28.00;;;;;;4855705;29;20073;-72
2021/01/14 12:24:27;;;;;;;9.40;5.22;;;2.30;28.10;;;;;;4854388;29;20064;-71
2021/01/14 12:26:54;;;;;;;10.70;5.93;;;2.20;29.10;;;;;;4856647;29;20064;-70
2021/01/14 12:29:21;;;;;;;10.77;5.30;;;2.20;29.10;;;;;;4858652;29;20057;-70
2021/01/14 12:31:48;;;;;;;15.18;6.40;;;2.20;28.70;;;;;;4854966;29;20068;-70
2021/01/14 12:34:15;;;;;;;13.95;6.28;;;2.30;29.40;;;;;;4855008;29;20427;-72
2021/01/14 12:36:41;;;;;;;12.73;6.82;;;2.40;28.20;;;;;;4854495;29;20067;-70
2021/01/14 12:39:08;;;;;;;11.57;6.47;;;2.30;28.10;;;;;;4854849;29;20519;-69
2021/01/14 12:41:35;;;;;;;13.52;6.85;;;2.20;28.40;;;;;;4854872;29;20050;-70
2021/01/14 12:44:04;;;;;;;12.30;6.53;;;2.30;28.60;;;;;;4853961;29;20136;-70
2021/01/14 12:46:38;;;;;;;9.82;5.20;;;2.50;28.20;;;;;;4853745;29;20058;-69
2021/01/14 12:49:07;;;;;;;11.32;6.07;;;2.20;25.80;;;;;;4855663;29;20057;-72
2021/01/14 12:51:34;;;;;;;7.88;5.00;;;2.40;28.10;;;;;;4852728;29;20595;-69
2021/01/14 12:54:01;;;;;;;14.48;7.75;;;2.40;24.00;;;;;;4853411;29;20068;-72
2021/01/14 12:56:28;;;;;;;11.93;5.80;;;2.50;25.80;;;;;;4852794;29;20140;-70
2021/01/14 12:58:55;;;;;;;10.20;5.50;;;2.60;24.70;;;;;;4853630;29;20416;-70
2021/01/14 13:01:30;;;;;;;7.65;5.18;;;2.60;21.50;;;;;;4853821;29;20050;-70
2021/01/14 13:03:59;;;;;;;8.70;4.38;;;2.50;22.00;;;;;;4852650;29;20161;-71